Kailua, HI

5:45 AM HST on March 27, 2017 (GMT -1000)
Kailua Estates | | Change Station

Elev 7 ft 21.40 °N, 157.73 °W | Updated 23 seconds ago

Partly Cloudy
Partly Cloudy
75.2 °F
Feels Like 76 °F
N
4.7
Wind Variable Wind from ESE

Today
High -- | Low -- °F
--% Chance of Precip.
Yesterday
High -- | Low -- °F
Precip. -- in
Pressure 30.07 in
Visibility 7.0 miles
Clouds Few 2600 ft
Mostly Cloudy 3800 ft
Mostly Cloudy 5500 ft
Heat Index 76 °F
Dew Point 69 °F
Humidity 80%
Rainfall 0.00 in
Snow Depth Not available.
6:28 AM 6:44 PM
Waning Crescent, 0% visible
METAR PHNG 271457Z 09007KT 7SM FEW026 BKN038 BKN055 24/19 A3008 RMK SLP182 T02440194 55008
Pressure 30.07 in
Visibility 7.0 miles
Clouds Few 2600 ft
Mostly Cloudy 3800 ft
Mostly Cloudy 5500 ft
Heat Index 76 °F
Dew Point 69 °F
Humidity 80%
Rainfall 0.00 in
Snow Depth Not available.
6:28 AM 6:44 PM
Waning Crescent, 0% visible
METAR PHNG 271457Z 09007KT 7SM FEW026 BKN038 BKN055 24/19 A3008 RMK SLP182 T02440194 55008

Get Severe Weather Alerts

Thanks for signing up!

Be on the lookout for a verification email in your inbox.

You'll start receiving the daily forecast at 8 AM.

×

10-Day Weather Forecast

Almanac

Astronomy

Mar. 27, 2017 Rise Set
Actual Time
Civil Twilight
Nautical Twilight
Astronomical Twilight
Moon
Length of Visible Light
Length of Day
Tomorrow will be .
, % of the Moon is Illuminated

Today's Extremes

State Highs State Lows

Community

WunderPhotos

Upload Photos

1,962,540 photos uploaded!

WunderBlog® & News

Nearby

Air Quality

  Air Quality AQ Index Pollutant
Not available.

Snow Depth

Station Depth Elevation

Earthquake Activity

City Distance Mag. Time & Date
Minimum magnitude displayed is 2.5.

Earthquake Activity

City Distance Mag. Time & Date
Minimum magnitude displayed is 2.5.

Coastal Water Temperatures

Place Temperature

Stations

Nearby Weather Stations

Station Location Temp. Windchill Dew Point Humidity Wind Precip. Elev Updated Type
                   

Watches & Warnings

There are currently no watches in effect.